Time;durP1;ratioP1;P1;durP2;ratioP2;P2;SDS_P1;SDS_P2;PMS_P1;PMS_P2;Temp;Humidity;BMP_temperature;BMP_pressure;BME280_temperature;BME280_humidity;BME280_pressure;Samples;Min_cycle;Max_cycle;Signal;HPM_P1;HPM_P2
2023/02/11 00:01:35;;;;;;;2.95;2.72;;;-1.30;94.20;;;;;;5034979;28;20228;-67
2023/02/11 00:04:03;;;;;;;2.25;1.58;;;-1.30;94.50;;;;;;5049090;28;20757;-67
2023/02/11 00:06:32;;;;;;;3.85;1.58;;;-1.30;94.60;;;;;;5049818;28;20238;-67
2023/02/11 00:08:59;;;;;;;2.25;1.50;;;-1.30;94.70;;;;;;5036809;28;20204;-67
2023/02/11 00:11:29;;;;;;;2.30;1.98;;;-1.30;94.40;;;;;;5030067;28;20274;-67
2023/02/11 00:13:57;;;;;;;4.18;3.90;;;-1.30;94.40;;;;;;5028744;28;20327;-67
2023/02/11 00:16:24;;;;;;;3.35;3.05;;;-1.30;94.50;;;;;;5033638;28;20588;-66
2023/02/11 00:18:51;;;;;;;11.60;2.17;;;-1.40;94.40;;;;;;5047447;28;20200;-67
2023/02/11 00:21:20;;;;;;;1.95;1.52;;;-1.40;94.50;;;;;;5049142;28;20228;-67
2023/02/11 00:23:47;;;;;;;1.60;1.50;;;-1.40;94.30;;;;;;5049293;28;20606;-67
2023/02/11 00:26:15;;;;;;;2.90;1.95;;;-1.40;94.40;;;;;;5049087;28;20220;-67
2023/02/11 00:28:41;;;;;;;2.88;2.35;;;-1.50;94.60;;;;;;5046872;28;20203;-67
2023/02/11 00:31:10;;;;;;;2.88;2.70;;;-1.40;94.80;;;;;;5048588;28;20220;-67
2023/02/11 00:33:36;;;;;;;3.00;2.80;;;-1.50;94.60;;;;;;5048648;28;20234;-67
2023/02/11 00:36:05;;;;;;;2.80;1.73;;;-1.50;94.60;;;;;;5048955;28;20238;-67
2023/02/11 00:38:32;;;;;;;2.90;2.30;;;-1.50;94.40;;;;;;5054919;28;20677;-67
2023/02/11 00:40:58;;;;;;;2.17;2.05;;;-1.50;94.20;;;;;;5066266;28;20560;-66
2023/02/11 00:43:25;;;;;;;3.47;2.65;;;-1.50;94.30;;;;;;5068886;28;20672;-67
2023/02/11 00:45:52;;;;;;;3.80;2.90;;;-1.50;94.20;;;;;;5068360;28;20227;-68
2023/02/11 00:48:20;;;;;;;18.60;2.97;;;-1.40;94.30;;;;;;5062895;28;20551;-67
2023/02/11 00:50:47;;;;;;;2.05;1.95;;;-1.40;94.30;;;;;;5048873;28;20294;-67
2023/02/11 00:53:14;;;;;;;2.63;2.53;;;-1.40;94.30;;;;;;5049135;28;20611;-67
2023/02/11 00:55:41;;;;;;;5.65;3.35;;;-1.50;94.20;;;;;;5048576;28;20261;-67
2023/02/11 00:58:07;;;;;;;2.15;2.08;;;-1.50;94.20;;;;;;5038655;28;20203;-67
2023/02/11 01:00:34;;;;;;;7.68;4.32;;;-1.50;94.30;;;;;;5028630;28;20239;-67
2023/02/11 01:03:01;;;;;;;7.03;3.85;;;-1.50;94.50;;;;;;5028958;28;20211;-68
2023/02/11 01:05:31;;;;;;;2.72;2.33;;;-1.60;94.60;;;;;;5028622;28;20232;-67
2023/02/11 01:07:59;;;;;;;1.63;1.58;;;-1.60;94.70;;;;;;5035199;28;20200;-67
2023/02/11 01:10:27;;;;;;;4.05;3.75;;;-1.60;94.60;;;;;;5048334;28;20675;-66
2023/02/11 01:12:54;;;;;;;5.75;1.88;;;-1.60;94.60;;;;;;5047476;28;20227;-67
2023/02/11 01:15:22;;;;;;;3.42;3.13;;;-1.50;94.90;;;;;;5048170;28;20257;-67
2023/02/11 01:17:48;;;;;;;4.03;2.10;;;-1.50;94.50;;;;;;5041002;28;20211;-67
2023/02/11 01:20:18;;;;;;;4.93;4.53;;;-1.50;94.60;;;;;;5027654;28;20204;-67
2023/02/11 01:22:46;;;;;;;2.25;2.05;;;-1.50;94.80;;;;;;5028316;28;20211;-67
2023/02/11 01:25:13;;;;;;;4.22;3.83;;;-1.50;94.80;;;;;;5027836;28;20669;-68
2023/02/11 01:27:40;;;;;;;6.88;3.70;;;-1.50;94.80;;;;;;5029669;28;20537;-67
2023/02/11 01:30:09;;;;;;;5.32;4.07;;;-1.50;94.50;;;;;;5027566;28;20204;-67
2023/02/11 01:32:36;;;;;;;8.68;3.05;;;-1.50;94.50;;;;;;5028054;28;20219;-67
2023/02/11 01:35:03;;;;;;;2.90;2.80;;;-1.50;94.40;;;;;;5027416;28;20223;-66
2023/02/11 01:37:32;;;;;;;6.95;4.32;;;-1.50;94.30;;;;;;5039761;28;20209;-67
2023/02/11 01:40:01;;;;;;;2.15;2.05;;;-1.50;94.30;;;;;;5057225;28;20692;-67
2023/02/11 01:42:28;;;;;;;4.80;4.10;;;-1.50;94.30;;;;;;5047824;28;20234;-67
2023/02/11 01:44:57;;;;;;;3.10;1.92;;;-1.60;94.40;;;;;;5048076;28;20253;-67
2023/02/11 01:47:24;;;;;;;4.53;4.05;;;-1.60;94.40;;;;;;5047002;28;20252;-67
2023/02/11 01:49:55;;;;;;;5.05;4.18;;;-1.60;94.40;;;;;;5047049;28;20788;-67
2023/02/11 01:52:25;;;;;;;3.25;1.75;;;-1.60;94.50;;;;;;5047140;28;20625;-66
2023/02/11 01:57:45;;;;;;;2.38;2.17;;;-1.70;94.40;;;;;;5040181;28;20200;-67
2023/02/11 02:00:16;;;;;;;2.90;2.80;;;-1.70;94.50;;;;;;5027162;28;20193;-67
2023/02/11 02:02:50;;;;;;;3.50;3.22;;;-1.70;94.50;;;;;;5031347;28;20286;-67
2023/02/11 02:05:23;;;;;;;5.13;3.95;;;-1.70;94.50;;;;;;5047541;28;20211;-67
2023/02/11 02:07:58;;;;;;;5.03;4.72;;;-1.60;94.50;;;;;;5046384;28;20201;-68
2023/02/11 02:10:27;;;;;;;2.90;2.70;;;-1.70;94.40;;;;;;5047134;28;20251;-67
2023/02/11 02:12:56;;;;;;;1.90;1.80;;;-1.70;94.50;;;;;;5045835;28;20249;-67
2023/02/11 02:15:29;;;;;;;1.85;1.75;;;-1.70;94.90;;;;;;5046895;28;20234;-67
2023/02/11 02:18:02;;;;;;;2.08;1.75;;;-1.70;94.80;;;;;;5047616;28;20196;-67
2023/02/11 02:21:12;;;;;;;1.77;1.67;;;-1.70;94.70;;;;;;5047391;28;20224;-67
2023/02/11 02:24:00;;;;;;;2.60;1.83;;;-1.70;94.60;;;;;;5031494;28;20566;-66
2023/02/11 02:26:51;;;;;;;5.20;4.80;;;-1.60;94.60;;;;;;5026922;28;20224;-67
2023/02/11 02:29:53;;;;;;;3.20;3.00;;;-1.70;94.70;;;;;;5041562;28;20273;-67
2023/02/11 02:32:49;;;;;;;2.33;2.22;;;-1.70;94.90;;;;;;5028079;28;20251;-67
2023/02/11 02:35:28;;;;;;;2.15;2.03;;;-1.70;94.90;;;;;;5027492;28;20231;-68
2023/02/11 02:37:59;;;;;;;12.95;3.33;;;-1.70;94.80;;;;;;5044832;28;20213;-67
2023/02/11 02:40:32;;;;;;;3.40;2.97;;;-1.70;94.80;;;;;;5050588;28;20583;-68
2023/02/11 02:43:01;;;;;;;3.65;3.35;;;-1.70;94.70;;;;;;5047392;28;20202;-67
2023/02/11 02:45:29;;;;;;;4.30;3.50;;;-1.70;94.70;;;;;;5046726;28;20702;-67
2023/02/11 02:47:58;;;;;;;3.72;2.67;;;-1.70;94.70;;;;;;5044672;28;20199;-67
2023/02/11 02:50:30;;;;;;;2.10;2.00;;;-1.70;94.90;;;;;;5031072;28;20315;-66
2023/02/11 02:53:13;;;;;;;3.10;2.90;;;-1.70;95.20;;;;;;5030676;28;20228;-67
2023/02/11 02:55:52;;;;;;;3.83;2.38;;;-1.70;95.40;;;;;;5031188;28;20565;-67
2023/02/11 02:58:50;;;;;;;2.05;1.90;;;-1.70;95.20;;;;;;5038132;28;20270;-67
2023/02/11 03:01:28;;;;;;;2.47;2.38;;;-1.70;95.00;;;;;;5050411;28;20281;-67
2023/02/11 03:04:06;;;;;;;6.57;3.03;;;-1.70;94.90;;;;;;5051019;28;20214;-66
2023/02/11 03:06:41;;;;;;;5.18;2.67;;;-1.60;94.80;;;;;;5050972;28;20224;-67
2023/02/11 03:09:15;;;;;;;2.50;2.40;;;-1.70;94.90;;;;;;5035487;28;20648;-67
2023/02/11 03:11:42;;;;;;;2.65;2.47;;;-1.70;95.30;;;;;;5030151;28;20307;-67
2023/02/11 03:14:12;;;;;;;4.30;3.63;;;-1.60;95.40;;;;;;5030875;28;20278;-67
2023/02/11 03:16:39;;;;;;;4.20;3.80;;;-1.60;95.00;;;;;;5030655;28;20761;-67
2023/02/11 03:19:13;;;;;;;6.15;2.90;;;-1.60;94.90;;;;;;5043973;28;20215;-67
2023/02/11 03:21:42;;;;;;;4.13;2.95;;;-1.60;95.00;;;;;;5049938;28;20231;-66
2023/02/11 03:24:16;;;;;;;5.55;3.42;;;-1.60;95.20;;;;;;5050177;28;20220;-66
2023/02/11 03:26:49;;;;;;;2.30;2.00;;;-1.60;95.00;;;;;;5050333;28;20598;-67
2023/02/11 03:29:23;;;;;;;8.32;3.08;;;-1.60;94.90;;;;;;5034390;28;20603;-67
2023/02/11 03:31:59;;;;;;;9.18;3.50;;;-1.60;94.80;;;;;;5030171;28;20228;-67
2023/02/11 03:34:33;;;;;;;4.43;4.05;;;-1.60;94.80;;;;;;5030091;28;20239;-68
2023/02/11 03:37:05;;;;;;;2.83;2.63;;;-1.60;94.70;;;;;;5032652;28;20628;-67
2023/02/11 03:39:37;;;;;;;10.35;3.65;;;-1.70;94.70;;;;;;5056966;28;20662;-67
2023/02/11 03:42:08;;;;;;;3.80;3.60;;;-1.70;94.70;;;;;;5069959;28;20685;-67
2023/02/11 03:44:40;;;;;;;5.10;3.08;;;-1.70;94.70;;;;;;5068682;28;20199;-67
2023/02/11 03:47:12;;;;;;;4.13;2.22;;;-1.70;94.60;;;;;;5067016;28;20238;-67
2023/02/11 03:49:42;;;;;;;2.20;2.10;;;-1.60;94.80;;;;;;5049626;28;20752;-67
2023/02/11 03:52:12;;;;;;;4.10;3.75;;;-1.70;94.80;;;;;;5050172;28;20246;-67
2023/02/11 03:54:43;;;;;;;4.75;4.38;;;-1.70;95.00;;;;;;5050012;28;20224;-67
2023/02/11 03:57:12;;;;;;;2.85;2.65;;;-1.70;95.20;;;;;;5047293;28;20479;-67
2023/02/11 03:59:54;;;;;;;5.60;3.83;;;-1.80;95.30;;;;;;5029092;28;20208;-67
2023/02/11 04:02:24;;;;;;;4.82;2.92;;;-1.80;95.50;;;;;;5029972;28;20596;-67
2023/02/11 04:04:52;;;;;;;2.88;2.70;;;-1.70;95.70;;;;;;5029776;28;20264;-67
2023/02/11 04:07:19;;;;;;;7.70;2.28;;;-1.70;95.20;;;;;;5029690;28;21059;-67
2023/02/11 04:09:46;;;;;;;4.70;4.25;;;-1.60;95.20;;;;;;5033263;28;20281;-67
2023/02/11 04:12:12;;;;;;;3.50;3.30;;;-1.60;95.20;;;;;;5049194;28;20235;-66
2023/02/11 04:14:39;;;;;;;2.22;2.13;;;-1.60;95.50;;;;;;5049335;28;20239;-66
2023/02/11 04:17:06;;;;;;;1.95;1.85;;;-1.50;95.30;;;;;;5045617;28;20552;-67
2023/02/11 04:19:33;;;;;;;2.78;2.65;;;-1.50;95.40;;;;;;5029168;28;20201;-67
2023/02/11 04:22:01;;;;;;;7.13;3.22;;;-1.50;95.50;;;;;;5029744;28;20239;-66
2023/02/11 04:24:28;;;;;;;6.70;4.78;;;-1.40;95.70;;;;;;5029082;28;20220;-67
2023/02/11 04:26:55;;;;;;;4.57;3.45;;;-1.30;95.50;;;;;;5029910;28;20308;-67
2023/02/11 04:29:22;;;;;;;3.85;2.05;;;-1.30;95.50;;;;;;5049002;28;20210;-67
2023/02/11 04:31:49;;;;;;;3.53;3.10;;;-1.30;96.00;;;;;;5048819;28;20262;-67
2023/02/11 04:34:16;;;;;;;2.53;1.77;;;-1.20;95.80;;;;;;5049404;28;20230;-67
2023/02/11 04:36:43;;;;;;;1.52;1.42;;;-1.20;95.90;;;;;;5048819;28;20229;-68
2023/02/11 04:39:11;;;;;;;1.90;1.77;;;-1.10;96.00;;;;;;5063374;28;20282;-67
2023/02/11 04:41:38;;;;;;;7.65;4.70;;;-1.00;95.90;;;;;;5028785;28;20737;-66
2023/02/11 04:44:05;;;;;;;3.60;3.17;;;-0.90;96.00;;;;;;5029424;28;20208;-66
2023/02/11 04:46:32;;;;;;;3.70;1.77;;;-1.00;95.50;;;;;;5028996;28;20232;-67
2023/02/11 04:48:59;;;;;;;3.63;3.33;;;-0.90;95.50;;;;;;5028501;28;20199;-67
2023/02/11 04:51:25;;;;;;;2.17;1.98;;;-1.00;95.50;;;;;;5035486;28;20228;-67
2023/02/11 04:53:52;;;;;;;3.05;2.88;;;-0.90;95.80;;;;;;5048603;28;20227;-67
2023/02/11 04:56:20;;;;;;;6.28;2.88;;;-0.80;95.50;;;;;;5048892;28;20243;-67
2023/02/11 04:58:47;;;;;;;2.45;2.35;;;-0.70;95.40;;;;;;5047872;28;20208;-67
2023/02/11 05:01:16;;;;;;;6.38;5.25;;;-0.70;95.30;;;;;;5042689;28;20706;-67
2023/02/11 05:03:43;;;;;;;5.35;3.15;;;-0.60;95.40;;;;;;5028952;28;20204;-67
2023/02/11 05:06:10;;;;;;;40.80;4.28;;;-0.60;95.20;;;;;;5028371;28;20316;-67
2023/02/11 05:08:37;;;;;;;6.03;4.53;;;-0.50;94.90;;;;;;5041765;28;20200;-67
2023/02/11 05:11:04;;;;;;;8.32;2.78;;;-0.50;94.70;;;;;;5048275;28;20346;-66
2023/02/11 05:13:32;;;;;;;4.30;3.03;;;-0.50;94.70;;;;;;5048703;28;20227;-67
2023/02/11 05:15:59;;;;;;;2.40;2.00;;;-0.50;94.80;;;;;;5048135;28;20227;-67
2023/02/11 05:18:26;;;;;;;2.50;2.40;;;-0.40;95.00;;;;;;5043847;28;20672;-66
2023/02/11 05:20:53;;;;;;;5.80;2.90;;;-0.40;94.90;;;;;;5047616;28;20728;-67
2023/02/11 05:23:20;;;;;;;1.17;1.17;;;-0.40;94.90;;;;;;5048340;28;20717;-67
2023/02/11 05:25:46;;;;;;;3.10;2.90;;;-0.40;95.00;;;;;;5048152;28;20593;-66
2023/02/11 05:28:13;;;;;;;18.77;5.97;;;-0.30;94.90;;;;;;5042010;28;20204;-67
2023/02/11 05:30:44;;;;;;;4.22;3.03;;;-0.30;94.70;;;;;;5028363;28;20228;-66
2023/02/11 05:33:11;;;;;;;6.38;2.22;;;-0.20;94.50;;;;;;5027953;28;20694;-67
2023/02/11 05:35:38;;;;;;;3.65;3.45;;;-0.30;94.40;;;;;;5028129;28;20240;-67
2023/02/11 05:38:04;;;;;;;5.25;2.72;;;-0.20;94.40;;;;;;5047411;28;20214;-66
2023/02/11 05:40:31;;;;;;;3.58;3.38;;;-0.30;94.30;;;;;;5053326;28;20228;-66
2023/02/11 05:42:58;;;;;;;21.27;4.72;;;-0.30;94.40;;;;;;5047732;28;20215;-67
2023/02/11 05:45:25;;;;;;;3.17;2.67;;;-0.20;94.40;;;;;;5047830;28;20223;-67
2023/02/11 05:47:53;;;;;;;6.68;2.85;;;-0.30;94.20;;;;;;5043785;28;20258;-67
2023/02/11 05:50:20;;;;;;;3.40;3.20;;;-0.30;94.30;;;;;;5027367;28;20200;-66
2023/02/11 05:52:46;;;;;;;5.88;3.25;;;-0.30;94.40;;;;;;5027942;28;20208;-66
2023/02/11 05:55:13;;;;;;;2.60;1.88;;;-0.20;94.60;;;;;;5027979;28;20232;-67
2023/02/11 05:57:40;;;;;;;3.63;3.30;;;-0.20;94.40;;;;;;5027864;28;20205;-66
2023/02/11 06:00:08;;;;;;;6.00;3.78;;;-0.20;94.50;;;;;;5047084;28;20214;-67
2023/02/11 06:02:35;;;;;;;2.40;2.17;;;-0.20;94.60;;;;;;5047417;28;20208;-66
2023/02/11 06:05:03;;;;;;;4.43;3.30;;;-0.20;94.60;;;;;;5047954;28;20286;-66
2023/02/11 06:07:30;;;;;;;3.75;2.30;;;-0.20;94.60;;;;;;5047702;28;20207;-66
2023/02/11 06:09:58;;;;;;;4.22;3.80;;;-0.20;94.60;;;;;;5046092;28;20211;-67
2023/02/11 06:12:25;;;;;;;4.88;2.47;;;-0.20;94.60;;;;;;5027425;28;20643;-66
2023/02/11 06:14:52;;;;;;;3.40;2.65;;;-0.20;94.60;;;;;;5027690;28;20229;-67
2023/02/11 06:17:19;;;;;;;8.65;3.33;;;-0.20;94.60;;;;;;5030087;28;20220;-66
2023/02/11 06:19:46;;;;;;;11.70;4.32;;;-0.20;94.70;;;;;;5046090;28;20210;-67
2023/02/11 06:22:14;;;;;;;6.30;2.47;;;-0.20;94.60;;;;;;5051807;28;20227;-67
2023/02/11 06:24:41;;;;;;;2.65;2.47;;;-0.20;94.90;;;;;;5051900;28;20215;-66
2023/02/11 06:27:08;;;;;;;4.20;1.98;;;-0.10;95.10;;;;;;5051051;28;20242;-67
2023/02/11 06:29:35;;;;;;;3.45;2.78;;;-0.10;95.60;;;;;;5049522;28;20203;-67
2023/02/11 06:32:02;;;;;;;1.77;1.67;;;-0.10;95.30;;;;;;5044051;28;20235;-66
2023/02/11 06:34:29;;;;;;;4.55;2.38;;;-0.10;95.20;;;;;;5031674;28;20230;-66
2023/02/11 06:36:56;;;;;;;4.18;1.80;;;-0.10;95.30;;;;;;5032845;28;20229;-66
2023/02/11 06:39:24;;;;;;;7.28;1.80;;;-0.10;95.20;;;;;;5066665;28;20204;-66
2023/02/11 06:41:50;;;;;;;3.45;3.25;;;0.00;95.30;;;;;;5050151;28;20222;-66
2023/02/11 06:44:17;;;;;;;8.50;5.15;;;0.00;95.20;;;;;;5051362;28;20200;-66
2023/02/11 06:46:44;;;;;;;2.80;2.60;;;0.00;95.20;;;;;;5051149;28;20234;-66
2023/02/11 06:49:11;;;;;;;1.73;1.27;;;0.00;95.20;;;;;;5050917;28;20207;-66
2023/02/11 06:51:37;;;;;;;5.00;2.60;;;0.10;95.00;;;;;;5050815;28;20732;-67
2023/02/11 06:54:06;;;;;;;3.80;3.50;;;0.10;94.80;;;;;;5036532;28;20597;-66
2023/02/11 06:56:35;;;;;;;5.18;2.35;;;0.10;94.90;;;;;;5050405;28;20228;-67
2023/02/11 06:59:02;;;;;;;3.08;2.88;;;0.10;95.30;;;;;;5033698;28;20318;-67
2023/02/11 07:01:29;;;;;;;2.85;1.95;;;0.10;95.60;;;;;;5031039;28;20619;-67
2023/02/11 07:03:56;;;;;;;2.65;2.55;;;0.20;95.60;;;;;;5031343;28;20235;-67
2023/02/11 07:06:26;;;;;;;2.10;2.00;;;0.20;95.30;;;;;;5030968;28;20597;-66
2023/02/11 07:08:55;;;;;;;4.45;4.05;;;0.20;95.20;;;;;;5044041;28;20646;-67
2023/02/11 07:11:24;;;;;;;2.63;2.45;;;0.30;95.20;;;;;;5050475;28;20733;-66
2023/02/11 07:13:53;;;;;;;4.32;2.88;;;0.30;95.10;;;;;;5050800;28;20262;-67
2023/02/11 07:16:20;;;;;;;4.72;1.98;;;0.30;94.90;;;;;;5049545;28;20234;-66
2023/02/11 07:18:48;;;;;;;3.90;2.80;;;0.30;94.90;;;;;;5047357;28;20681;-66
2023/02/11 07:21:18;;;;;;;7.03;2.30;;;0.40;95.00;;;;;;5050301;28;20228;-66
2023/02/11 07:23:44;;;;;;;3.63;2.83;;;0.40;94.80;;;;;;5050510;28;20210;-67
2023/02/11 07:26:14;;;;;;;2.90;2.70;;;0.40;94.90;;;;;;5050515;28;20227;-67
2023/02/11 07:28:44;;;;;;;4.18;2.40;;;0.40;95.00;;;;;;5048042;28;20200;-66
2023/02/11 07:31:14;;;;;;;5.75;3.15;;;0.40;95.10;;;;;;5050185;28;20221;-67
2023/02/11 07:33:42;;;;;;;5.75;3.33;;;0.50;95.20;;;;;;5050499;28;20477;-66
2023/02/11 07:36:10;;;;;;;4.68;2.65;;;0.50;95.30;;;;;;5049502;28;20724;-66
2023/02/11 07:38:38;;;;;;;2.03;1.90;;;0.60;95.30;;;;;;5053734;28;20207;-66
2023/02/11 07:41:07;;;;;;;3.75;2.38;;;0.60;95.10;;;;;;5068543;28;20223;-67
2023/02/11 07:43:35;;;;;;;1.55;1.40;;;0.60;95.10;;;;;;5070245;28;20278;-66
2023/02/11 07:46:04;;;;;;;4.35;3.90;;;0.60;95.10;;;;;;5066881;28;20223;-66
2023/02/11 07:48:32;;;;;;;4.90;4.38;;;0.70;95.10;;;;;;5029480;28;20250;-67
2023/02/11 07:51:06;;;;;;;4.68;4.30;;;0.70;95.00;;;;;;5042548;28;20220;-66
2023/02/11 07:53:33;;;;;;;4.72;4.25;;;0.80;95.00;;;;;;5050143;28;20204;-66
2023/02/11 07:55:59;;;;;;;4.57;2.47;;;0.80;95.10;;;;;;5049913;28;20330;-67
2023/02/11 07:58:26;;;;;;;4.28;3.05;;;0.80;95.10;;;;;;5039928;28;20212;-65
2023/02/11 08:00:53;;;;;;;3.97;3.67;;;0.90;95.20;;;;;;5029694;28;20728;-66
2023/02/11 08:03:20;;;;;;;3.55;2.92;;;1.00;95.20;;;;;;5029486;28;20606;-67
2023/02/11 08:05:48;;;;;;;2.30;2.20;;;1.00;95.10;;;;;;5029923;28;20586;-66
2023/02/11 08:08:14;;;;;;;4.30;2.20;;;1.10;95.00;;;;;;5034834;28;20564;-66
2023/02/11 08:10:41;;;;;;;1.55;1.45;;;1.10;95.00;;;;;;5049682;28;20246;-67
2023/02/11 08:13:08;;;;;;;4.20;2.70;;;1.10;95.00;;;;;;5043784;28;20223;-67
2023/02/11 08:15:35;;;;;;;2.25;2.05;;;1.20;95.00;;;;;;5028965;28;20248;-67
2023/02/11 08:18:01;;;;;;;1.85;1.75;;;1.30;94.90;;;;;;5032802;28;20196;-66
2023/02/11 08:20:28;;;;;;;5.85;2.88;;;1.30;94.80;;;;;;5049265;28;20234;-67
2023/02/11 08:22:56;;;;;;;4.90;3.15;;;1.40;94.80;;;;;;5049914;28;20204;-67
2023/02/11 08:25:23;;;;;;;1.88;1.60;;;1.40;94.80;;;;;;5049501;28;20231;-66
2023/02/11 08:27:50;;;;;;;4.88;2.50;;;1.50;94.80;;;;;;5047736;28;20206;-67
2023/02/11 08:30:17;;;;;;;3.13;2.42;;;1.60;94.90;;;;;;5028017;28;20767;-67
2023/02/11 08:32:43;;;;;;;5.32;2.70;;;1.60;94.80;;;;;;5029245;28;20659;-67
2023/02/11 08:35:11;;;;;;;1.80;1.33;;;1.70;94.70;;;;;;5029477;28;20236;-66
2023/02/11 08:37:38;;;;;;;3.72;3.42;;;1.80;94.70;;;;;;5041722;28;20199;-66
2023/02/11 08:40:07;;;;;;;7.88;3.42;;;1.80;94.60;;;;;;5059301;28;20218;-66
2023/02/11 08:42:34;;;;;;;1.67;1.38;;;1.80;94.60;;;;;;5064188;28;20199;-66
2023/02/11 08:45:01;;;;;;;6.43;2.60;;;1.80;94.60;;;;;;5048635;28;20208;-67
2023/02/11 08:47:27;;;;;;;4.47;2.35;;;1.90;94.50;;;;;;5048572;28;20228;-66
2023/02/11 08:49:54;;;;;;;5.32;3.65;;;1.90;94.50;;;;;;5028627;28;20300;-66
2023/02/11 08:52:21;;;;;;;4.90;2.63;;;2.00;94.50;;;;;;5028718;28;20228;-67
2023/02/11 08:54:48;;;;;;;9.73;3.28;;;2.00;94.40;;;;;;5029031;28;20224;-67
2023/02/11 08:57:16;;;;;;;3.30;3.00;;;2.10;94.80;;;;;;5028873;28;20320;-67
2023/02/11 08:59:43;;;;;;;3.45;2.03;;;2.20;94.60;;;;;;5045164;28;20576;-66
2023/02/11 09:02:12;;;;;;;2.88;2.67;;;2.30;94.50;;;;;;5048619;28;20224;-67
2023/02/11 09:04:39;;;;;;;3.47;2.53;;;2.40;94.50;;;;;;5048666;28;20207;-67
2023/02/11 09:07:06;;;;;;;2.75;2.55;;;2.50;94.40;;;;;;5048424;28;20249;-67
2023/02/11 09:09:32;;;;;;;3.65;2.28;;;2.70;94.30;;;;;;5030522;28;20205;-66
2023/02/11 09:12:00;;;;;;;3.60;2.95;;;2.80;94.30;;;;;;5028208;28;20521;-67
2023/02/11 09:14:28;;;;;;;5.05;2.45;;;2.90;94.20;;;;;;5028544;28;20227;-69
2023/02/11 09:16:56;;;;;;;3.85;3.55;;;3.10;93.80;;;;;;5028617;28;20228;-66
2023/02/11 09:19:23;;;;;;;2.88;2.60;;;3.20;93.60;;;;;;5042390;28;20200;-66
2023/02/11 09:21:50;;;;;;;3.35;1.98;;;3.20;93.40;;;;;;5048678;28;20319;-66
2023/02/11 09:24:18;;;;;;;3.38;3.17;;;3.30;93.30;;;;;;5048048;28;20203;-67
2023/02/11 09:26:44;;;;;;;3.00;2.25;;;3.40;93.20;;;;;;5047690;28;20737;-66
2023/02/11 09:29:12;;;;;;;6.78;3.15;;;3.40;93.10;;;;;;5047721;28;20208;-67
2023/02/11 09:31:40;;;;;;;3.95;3.53;;;3.50;93.00;;;;;;5030293;28;20225;-66
2023/02/11 09:34:07;;;;;;;3.67;2.42;;;3.60;93.10;;;;;;5028246;28;20675;-66
2023/02/11 09:36:37;;;;;;;5.88;5.28;;;3.60;92.80;;;;;;5027902;28;20247;-67
2023/02/11 09:39:05;;;;;;;2.28;2.15;;;3.70;93.00;;;;;;5061558;28;20293;-66
2023/02/11 09:41:46;;;;;;;3.22;2.95;;;3.80;92.80;;;;;;5047707;28;20784;-68
2023/02/11 09:44:18;;;;;;;23.52;3.97;;;3.90;92.50;;;;;;5028421;28;20209;-66
2023/02/11 09:46:52;;;;;;;5.25;3.55;;;4.00;92.20;;;;;;5032167;28;20619;-67
2023/02/11 09:49:23;;;;;;;5.72;3.50;;;4.00;92.10;;;;;;5047519;28;20204;-67
2023/02/11 09:51:53;;;;;;;13.80;5.13;;;4.20;92.00;;;;;;5047865;28;20562;-67
2023/02/11 09:54:29;;;;;;;3.60;2.90;;;4.20;91.80;;;;;;5047509;28;20392;-67
2023/02/11 09:56:56;;;;;;;3.38;3.13;;;4.10;91.80;;;;;;5041996;28;20322;-67
2023/02/11 09:59:23;;;;;;;3.25;3.00;;;4.20;92.00;;;;;;5045860;28;20204;-67
2023/02/11 10:01:57;;;;;;;5.93;2.83;;;4.40;91.60;;;;;;5047560;28;20233;-66
2023/02/11 10:04:40;;;;;;;4.82;2.90;;;4.30;91.60;;;;;;5047968;28;20200;-66
2023/02/11 10:07:17;;;;;;;6.68;2.30;;;4.40;91.50;;;;;;5048050;28;20246;-67
2023/02/11 10:09:58;;;;;;;3.00;2.83;;;4.40;91.50;;;;;;5027217;28;20208;-67
2023/02/11 10:12:57;;;;;;;2.40;2.30;;;4.50;91.20;;;;;;5027303;28;20757;-67
2023/02/11 10:15:38;;;;;;;2.80;2.10;;;4.60;91.20;;;;;;5024101;28;20244;-67
2023/02/11 10:18:32;;;;;;;3.60;3.05;;;4.50;91.20;;;;;;5032337;28;20202;-67
2023/02/11 10:21:12;;;;;;;3.97;2.45;;;4.40;91.10;;;;;;5046954;28;20856;-67
2023/02/11 10:23:42;;;;;;;2.60;2.25;;;4.50;91.30;;;;;;5047854;28;20203;-67
2023/02/11 10:26:13;;;;;;;3.97;2.35;;;4.50;91.40;;;;;;5047561;28;20260;-67
2023/02/11 10:28:44;;;;;;;8.48;3.17;;;4.50;91.40;;;;;;5036640;28;20216;-67
2023/02/11 10:31:16;;;;;;;3.80;3.50;;;4.50;91.40;;;;;;5040918;28;20288;-67
2023/02/11 10:33:49;;;;;;;5.85;3.75;;;4.60;91.40;;;;;;5043044;28;20204;-67
2023/02/11 10:36:18;;;;;;;3.60;3.30;;;4.70;91.40;;;;;;5047349;28;20239;-67
2023/02/11 10:38:45;;;;;;;5.07;2.97;;;4.80;91.20;;;;;;5062145;28;20214;-67
2023/02/11 10:41:17;;;;;;;6.20;3.63;;;4.90;90.90;;;;;;5047971;28;20531;-67
2023/02/11 10:43:44;;;;;;;6.72;3.78;;;4.90;90.70;;;;;;5045755;28;20210;-67
2023/02/11 10:46:17;;;;;;;3.40;3.10;;;5.00;90.90;;;;;;5047410;28;20644;-67
2023/02/11 10:48:49;;;;;;;2.55;2.40;;;5.10;90.50;;;;;;5046462;28;20645;-67
2023/02/11 10:51:19;;;;;;;2.67;2.35;;;5.10;90.70;;;;;;5047533;28;20220;-66
2023/02/11 10:53:47;;;;;;;5.20;2.50;;;5.10;90.60;;;;;;5047650;28;20869;-67
2023/02/11 10:56:22;;;;;;;6.07;3.40;;;5.20;90.60;;;;;;5034910;28;20788;-67
2023/02/11 10:58:57;;;;;;;4.18;2.90;;;5.20;90.60;;;;;;5039006;28;20203;-66
2023/02/11 11:01:37;;;;;;;3.88;3.08;;;5.20;90.60;;;;;;5047406;28;20227;-67
2023/02/11 11:04:06;;;;;;;4.35;3.95;;;5.30;90.60;;;;;;5033013;28;20203;-67
2023/02/11 11:06:34;;;;;;;5.93;4.03;;;5.30;90.60;;;;;;5028338;28;20228;-67
2023/02/11 11:09:01;;;;;;;5.45;4.00;;;5.40;90.40;;;;;;5030581;28;20219;-67
2023/02/11 11:11:28;;;;;;;4.80;2.90;;;5.50;90.00;;;;;;5030813;28;20232;-67
2023/02/11 11:13:57;;;;;;;4.45;2.80;;;5.50;90.50;;;;;;5041683;28;20196;-67
2023/02/11 11:16:26;;;;;;;3.70;2.88;;;5.50;90.30;;;;;;5050702;28;20897;-67
2023/02/11 11:19:13;;;;;;;6.53;4.13;;;5.60;90.00;;;;;;5036248;28;20809;-67
2023/02/11 11:21:44;;;;;;;6.13;4.22;;;5.50;90.00;;;;;;5030509;28;20316;-67
2023/02/11 11:24:18;;;;;;;3.88;3.55;;;5.60;90.20;;;;;;5031101;28;20200;-67
2023/02/11 11:26:47;;;;;;;5.50;2.85;;;5.70;90.40;;;;;;5030274;28;20765;-67
2023/02/11 11:29:17;;;;;;;4.28;2.08;;;5.70;90.50;;;;;;5045549;28;20322;-67
2023/02/11 11:31:51;;;;;;;3.00;2.80;;;5.70;90.40;;;;;;5049793;28;20734;-67
2023/02/11 11:34:26;;;;;;;2.08;1.95;;;5.80;90.40;;;;;;5050804;28;20196;-67
2023/02/11 11:36:56;;;;;;;5.63;3.28;;;5.90;90.20;;;;;;5050201;28;20231;-67
2023/02/11 11:39:26;;;;;;;2.75;2.25;;;5.90;89.90;;;;;;5064154;28;20196;-67
2023/02/11 11:41:57;;;;;;;2.25;1.95;;;6.00;90.40;;;;;;5049765;28;20588;-67
2023/02/11 11:44:31;;;;;;;1.88;1.77;;;6.10;90.50;;;;;;5050556;28;20210;-67
2023/02/11 11:47:24;;;;;;;3.17;2.03;;;6.00;90.20;;;;;;5050330;28;20239;-67
2023/02/11 11:50:09;;;;;;;3.13;1.60;;;6.10;90.10;;;;;;5029731;28;20667;-67
2023/02/11 11:52:44;;;;;;;2.58;1.92;;;6.20;89.20;;;;;;5029862;28;20215;-67
2023/02/11 11:55:17;;;;;;;2.47;2.28;;;6.30;87.90;;;;;;5030265;28;20636;-67
2023/02/11 11:57:44;;;;;;;3.17;2.03;;;6.30;88.40;;;;;;5038749;28;20283;-67
2023/02/11 12:00:16;;;;;;;2.72;2.17;;;6.40;89.20;;;;;;5049407;28;20200;-67
2023/02/11 12:03:17;;;;;;;6.82;3.42;;;6.40;89.10;;;;;;5049957;28;20200;-67
2023/02/11 12:05:55;;;;;;;3.70;2.67;;;6.50;88.40;;;;;;5049090;28;20557;-67
2023/02/11 12:08:31;;;;;;;3.65;2.63;;;6.70;86.50;;;;;;5045541;28;20192;-67
2023/02/11 12:11:04;;;;;;;5.60;3.38;;;6.90;87.40;;;;;;5049547;28;20227;-68
2023/02/11 12:14:03;;;;;;;3.60;2.10;;;6.90;87.40;;;;;;5049583;28;20199;-67
2023/02/11 12:16:38;;;;;;;2.90;2.70;;;6.90;85.80;;;;;;5049445;28;20323;-67
2023/02/11 12:19:35;;;;;;;4.30;3.10;;;7.00;84.80;;;;;;5044634;28;20204;-67
2023/02/11 12:22:10;;;;;;;5.57;4.27;;;7.00;85.60;;;;;;5045872;28;20242;-68
2023/02/11 12:24:56;;;;;;;6.17;3.63;;;7.00;85.90;;;;;;5029755;28;20638;-67
2023/02/11 12:27:35;;;;;;;3.73;2.27;;;7.00;86.40;;;;;;5029404;28;20697;-67
2023/02/11 12:30:13;;;;;;;4.93;3.93;;;7.00;87.10;;;;;;5048470;28;20713;-68
2023/02/11 12:32:48;;;;;;;7.00;3.80;;;7.10;87.50;;;;;;5049341;28;21072;-67
2023/02/11 12:35:37;;;;;;;4.23;3.93;;;7.10;87.00;;;;;;5049311;28;20629;-68
2023/02/11 12:38:27;;;;;;;7.10;5.67;;;7.20;87.30;;;;;;5046784;28;20703;-66
2023/02/11 12:41:09;;;;;;;5.60;4.23;;;7.30;87.90;;;;;;5065996;28;20656;-67
2023/02/11 12:43:37;;;;;;;5.17;4.03;;;7.50;86.60;;;;;;5069136;28;20637;-67
2023/02/11 12:46:31;;;;;;;11.50;4.03;;;7.60;86.10;;;;;;5068766;28;21153;-67
2023/02/11 12:49:32;;;;;;;5.27;4.00;;;7.80;86.00;;;;;;5052100;28;20626;-67
2023/02/11 12:52:16;;;;;;;4.97;3.50;;;7.80;86.60;;;;;;5048847;28;20654;-67
2023/02/11 12:54:48;;;;;;;6.60;4.53;;;7.90;87.20;;;;;;5048222;28;20631;-68
2023/02/11 12:57:21;;;;;;;6.00;3.73;;;7.90;87.00;;;;;;5048894;28;20676;-67
2023/02/11 12:59:55;;;;;;;5.03;3.90;;;7.90;86.80;;;;;;5041270;28;20607;-67
2023/02/11 13:02:30;;;;;;;7.50;4.30;;;7.90;87.30;;;;;;5028642;28;20643;-67
2023/02/11 13:05:00;;;;;;;4.73;3.33;;;7.90;86.90;;;;;;5028907;28;20631;-67
2023/02/11 13:07:30;;;;;;;5.70;4.30;;;8.00;86.70;;;;;;5028606;28;20655;-67
2023/02/11 13:10:04;;;;;;;5.80;2.60;;;8.00;86.90;;;;;;5048111;28;20619;-67
2023/02/11 13:15:29;;;;;;;4.87;4.40;;;7.90;88.10;;;;;;4986207;28;20691;-67